Time;durP1;ratioP1;P1;durP2;ratioP2;P2;SDS_P1;SDS_P2;PMS_P1;PMS_P2;Temp;Humidity;BMP_temperature;BMP_pressure;BME280_temperature;BME280_humidity;BME280_pressure;Samples;Min_cycle;Max_cycle;Signal;HPM_P1;HPM_P2
2022/05/11 00:00:38;;;;;;;;;10.00;9.00;;;;;21.36;46.32;100993.91;5019271;28;45485;-69
2022/05/11 00:03:05;;;;;;;;;10.33;9.33;;;;;20.84;46.69;100917.13;5019232;28;45496;-69
2022/05/11 00:05:32;;;;;;;;;10.33;8.67;;;;;21.36;46.36;101004.72;5018522;28;45821;-68
2022/05/11 00:07:57;;;;;;;;;8.67;8.67;;;;;21.38;46.26;101007.22;5018803;28;45453;-69
2022/05/11 00:10:23;;;;;;;;;8.67;8.67;;;;;21.36;46.29;101004.72;5019077;28;45524;-70
2022/05/11 00:12:49;;;;;;;;;9.00;9.00;;;;;21.39;46.27;101004.31;5018717;28;45361;-69
2022/05/11 00:15:19;;;;;;;;;9.00;7.67;;;;;21.39;46.32;101003.47;5018115;28;45661;-69
2022/05/11 00:17:44;;;;;;;;;10.33;9.67;;;;;21.19;46.48;100981.81;5017657;28;45452;-69
2022/05/11 00:20:10;;;;;;;;;9.67;8.33;;;;;21.25;46.68;100991.84;5017606;28;45561;-70
2022/05/11 00:22:37;;;;;;;;;9.67;9.67;;;;;21.29;46.66;100990.38;5018414;28;45343;-70
2022/05/11 00:25:05;;;;;;;;;10.67;8.33;;;;;20.65;46.92;100877.44;5017134;28;45629;-70
2022/05/11 00:27:31;;;;;;;;;13.00;12.67;;;;;21.07;46.95;100951.03;4999536;28;45528;-69
2022/05/11 00:29:57;;;;;;;;;13.00;11.67;;;;;21.25;46.79;100981.03;5018082;28;45460;-69
2022/05/11 00:32:25;;;;;;;;;9.00;7.67;;;;;21.21;46.93;100979.72;5016748;28;45270;-69
2022/05/11 00:34:51;;;;;;;;;9.33;9.33;;;;;21.17;47.06;100983.88;5017577;28;46569;-68
2022/05/11 00:37:17;;;;;;;;;11.33;8.33;;;;;21.13;47.07;100975.38;5016206;28;45501;-69
2022/05/11 00:39:42;;;;;;;;;10.00;10.00;;;;;21.09;47.01;100957.06;5017823;28;45485;-69
2022/05/11 00:42:08;;;;;;;;;8.00;8.00;;;;;21.03;47.37;100966.00;5018376;28;45660;-68
2022/05/11 00:44:33;;;;;;;;;9.00;7.67;;;;;20.74;47.30;100918.56;5018090;28;45599;-69
2022/05/11 00:47:05;;;;;;;;;8.67;8.67;;;;;20.31;47.41;100860.31;5016005;28;46238;-69
2022/05/11 00:49:38;;;;;;;;;9.67;8.67;;;;;20.62;47.30;100924.59;5016411;28;45291;-68
2022/05/11 00:52:36;;;;;;;;;7.67;5.33;;;;;20.82;47.59;100951.66;5017649;28;45985;-71
2022/05/11 00:55:08;;;;;;;;;8.67;8.00;;;;;20.67;47.58;100934.78;5016656;28;45741;-69
2022/05/11 00:58:02;;;;;;;;;11.33;8.33;;;;;20.79;47.42;100945.81;5017429;28;45542;-69
2022/05/11 01:00:28;;;;;;;;;10.67;8.67;;;;;20.73;47.72;100941.22;5016685;28;45559;-69
2022/05/11 01:03:15;;;;;;;;;8.67;7.33;;;;;20.53;47.55;100917.72;5018145;28;45361;-69
2022/05/11 01:05:42;;;;;;;;;9.67;8.33;;;;;20.12;48.03;100849.47;5000186;28;48503;-68
2022/05/11 01:08:13;;;;;;;;;8.67;7.67;;;;;20.62;47.87;100932.72;5017068;28;45419;-69
2022/05/11 01:10:39;;;;;;;;;9.00;7.00;;;;;20.59;47.99;100922.28;5017886;28;45346;-68
2022/05/11 01:13:09;;;;;;;;;7.00;7.00;;;;;20.57;48.31;100928.94;5016133;28;45424;-69
2022/05/11 01:15:35;;;;;;;;;7.33;7.33;;;;;20.49;48.02;100916.47;5017003;28;46402;-69
2022/05/11 01:18:03;;;;;;;;;9.33;8.33;;;;;20.34;48.26;100903.09;5016531;28;45480;-69
2022/05/11 01:20:33;;;;;;;;;10.00;9.67;;;;;20.41;48.57;100913.94;5017221;28;45508;-70
2022/05/11 01:23:43;;;;;;;;;8.00;6.67;;;;;20.35;48.66;100920.97;5017295;28;45540;-69
2022/05/11 01:26:09;;;;;;;;;9.33;8.00;;;;;20.40;48.64;100927.63;5012033;28;46506;-69
2022/05/11 01:28:41;;;;;;;;;8.67;7.67;;;;;20.33;48.69;100898.72;4998871;28;45270;-70
2022/05/11 01:31:10;;;;;;;;;9.33;8.67;;;;;20.45;48.46;100914.38;5017708;28;45389;-69
2022/05/11 01:33:39;;;;;;;;;11.00;10.00;;;;;20.49;48.36;100915.63;4999703;28;45378;-68
2022/05/11 01:36:23;;;;;;;;;9.00;7.33;;;;;20.45;48.23;100908.97;5016791;28;46774;-68
2022/05/11 01:38:49;;;;;;;;;9.67;9.67;;;;;20.18;48.27;100865.66;4999356;28;45222;-69
2022/05/11 01:41:29;;;;;;;;;9.67;9.67;;;;;20.47;48.09;100913.13;5016849;28;45501;-68
2022/05/11 01:43:55;;;;;;;;;10.33;10.33;;;;;19.49;48.51;100757.09;5017155;28;45345;-69
2022/05/11 01:46:22;;;;;;;;;11.33;11.33;;;;;20.42;48.65;100915.59;5016437;28;45763;-68
2022/05/11 01:48:48;;;;;;;;;10.67;8.67;;;;;20.21;48.06;100881.44;5017238;28;45443;-67
2022/05/11 01:51:15;;;;;;;;;12.00;11.00;;;;;20.43;48.37;100913.75;5015886;28;45428;-68
2022/05/11 01:53:41;;;;;;;;;8.33;8.00;;;;;20.43;48.19;100916.47;4999046;28;45211;-68
2022/05/11 01:56:09;;;;;;;;;9.00;8.67;;;;;20.33;48.82;100900.59;4998333;28;48631;-69
2022/05/11 01:58:36;;;;;;;;;10.33;9.67;;;;;20.32;48.71;100910.56;5016749;28;45274;-69
2022/05/11 02:01:03;;;;;;;;;10.33;9.67;;;;;20.33;48.85;100906.84;5016642;28;45626;-69
2022/05/11 02:03:28;;;;;;;;;9.00;9.00;;;;;20.29;48.64;100902.88;5016990;28;45538;-68
2022/05/11 02:08:40;;;;;;;;;9.00;9.00;;;;;20.08;48.92;100869.81;5015943;28;45429;-70
2022/05/11 02:11:06;;;;;;;;;13.00;9.67;;;;;20.31;49.02;100918.88;5016329;28;45360;-69
2022/05/11 02:13:32;;;;;;;;;11.33;10.67;;;;;19.93;49.43;100859.16;5016639;28;45283;-69
2022/05/11 02:15:58;;;;;;;;;10.67;9.33;;;;;20.19;49.17;100909.69;4999209;28;47376;-69
2022/05/11 02:18:23;;;;;;;;;8.00;6.67;;;;;20.05;49.16;100898.03;4999027;28;46537;-69
2022/05/11 02:20:49;;;;;;;;;10.00;8.33;;;;;19.97;49.41;100884.69;5017380;28;45292;-68
2022/05/11 02:23:16;;;;;;;;;11.33;10.00;;;;;19.94;49.63;100882.41;5017227;28;45363;-69
2022/05/11 02:25:53;;;;;;;;;10.00;10.00;;;;;19.91;49.67;100880.13;5016464;28;45274;-70
2022/05/11 02:28:21;;;;;;;;;12.33;9.67;;;;;20.09;49.51;100904.69;4998316;28;46047;-69
2022/05/11 02:30:48;;;;;;;;;9.67;8.67;;;;;19.98;49.47;100880.97;5002484;28;45537;-70
2022/05/11 02:33:14;;;;;;;;;9.67;9.67;;;;;19.52;49.47;100805.22;5019598;28;45647;-69
2022/05/11 02:35:44;;;;;;;;;7.67;6.33;;;;;19.99;49.51;100882.63;5020111;28;46612;-69
2022/05/11 02:38:19;;;;;;;;;7.33;7.33;;;;;19.96;49.53;100877.63;5019443;28;45567;-70
2022/05/11 02:40:46;;;;;;;;;10.00;8.33;;;;;20.06;49.57;100888.91;5019438;28;45510;-68
2022/05/11 02:43:11;;;;;;;;;7.00;7.00;;;;;19.93;49.66;100867.25;5002150;28;45628;-70
2022/05/11 02:45:42;;;;;;;;;6.67;6.67;;;;;20.13;49.38;100895.16;5019384;28;46004;-69
2022/05/11 02:48:13;;;;;;;;;8.00;8.00;;;;;20.14;49.33;100886.00;5018416;28;45496;-69
2022/05/11 02:50:48;;;;;;;;;14.33;9.67;;;;;18.96;49.20;100698.38;5019598;28;45544;-69
2022/05/11 02:53:15;;;;;;;;;8.67;7.67;;;;;20.16;49.18;100894.72;5019513;28;45458;-68
2022/05/11 02:55:46;;;;;;;;;9.00;9.00;;;;;20.04;49.13;100864.81;5019061;28;46433;-69
2022/05/11 02:58:17;;;;;;;;;8.33;8.00;;;;;20.11;49.07;100878.31;5001658;28;45462;-68
2022/05/11 03:00:45;;;;;;;;;9.33;9.33;;;;;20.14;49.54;100869.81;5019071;28;45381;-69
2022/05/11 03:03:13;;;;;;;;;13.00;11.00;;;;;20.15;49.57;100876.88;5019359;28;45564;-68
2022/05/11 03:05:40;;;;;;;;;8.67;8.67;;;;;20.21;49.07;100891.41;5018675;28;46523;-67
2022/05/11 03:08:06;;;;;;;;;8.67;7.67;;;;;20.05;49.46;100855.69;5018896;28;45395;-69
2022/05/11 03:10:31;;;;;;;;;10.00;9.00;;;;;20.08;49.21;100857.13;5018967;28;45507;-68
2022/05/11 03:12:57;;;;;;;;;2.00;0.00;;;;;20.09;49.54;100872.31;5019514;28;45390;-68
2022/05/11 03:15:23;;;;;;;;;18.00;14.67;;;;;20.22;49.21;100891.25;5018812;28;47083;-68
2022/05/11 03:17:51;;;;;;;;;9.67;9.00;;;;;20.00;49.65;100847.34;5018725;28;45393;-68
2022/05/11 03:20:18;;;;;;;;;10.33;10.33;;;;;20.20;49.54;100887.06;5019082;28;45341;-68
2022/05/11 03:22:44;;;;;;;;;16.33;13.67;;;;;19.94;49.35;100844.63;5018934;28;45541;-69
2022/05/11 03:25:10;;;;;;;;;11.00;9.67;;;;;20.18;50.08;100887.25;5018800;28;46166;-68
2022/05/11 03:27:36;;;;;;;;;11.00;9.00;;;;;20.16;50.19;100881.25;5019279;28;45342;-67
2022/05/11 03:30:04;;;;;;;;;9.00;8.67;;;;;20.07;50.11;100866.28;5001922;28;45361;-69
2022/05/11 03:35:13;;;;;;;;;10.67;10.67;;;;;20.01;50.75;100869.75;5018719;28;45397;-69
2022/05/11 03:37:39;;;;;;;;;12.33;10.33;;;;;19.93;50.76;100864.56;5018357;28;45406;-68
2022/05/11 03:40:09;;;;;;;;;8.00;8.00;;;;;20.04;50.82;100880.19;5018069;28;45496;-68
2022/05/11 03:42:36;;;;;;;;;12.33;9.33;;;;;19.04;50.72;100714.41;5019087;28;45614;-69
2022/05/11 03:45:08;;;;;;;;;13.33;10.00;;;;;19.52;50.82;100789.03;5000563;28;46236;-69
2022/05/11 03:47:33;;;;;;;;;15.67;11.33;;;;;20.01;51.08;100883.25;5018978;28;45384;-69
2022/05/11 03:49:58;;;;;;;;;11.33;11.33;;;;;19.98;51.09;100880.97;5018654;28;45447;-69
2022/05/11 03:52:24;;;;;;;;;9.67;9.67;;;;;19.93;50.70;100867.25;5018995;28;45756;-69
2022/05/11 03:54:49;;;;;;;;;13.67;11.67;;;;;19.96;51.39;100872.25;5018084;28;45479;-68
2022/05/11 03:57:14;;;;;;;;;12.00;10.00;;;;;19.94;51.24;100868.91;5018775;28;45908;-69
2022/05/11 03:59:40;;;;;;;;;10.00;10.00;;;;;19.83;51.40;100858.72;5018033;28;45428;-68
2022/05/11 04:02:05;;;;;;;;;13.00;12.00;;;;;19.85;51.37;100870.97;5018166;28;45437;-68
2022/05/11 04:04:31;;;;;;;;;10.33;9.33;;;;;19.28;51.41;100768.84;5017922;28;45855;-69
2022/05/11 04:06:56;;;;;;;;;11.67;11.67;;;;;19.90;51.40;100873.06;5017752;28;45468;-69
2022/05/11 04:09:21;;;;;;;;;12.33;12.33;;;;;19.92;51.71;100887.19;5018226;28;45825;-69
2022/05/11 04:11:49;;;;;;;;;11.33;10.67;;;;;19.77;51.97;100859.50;5017838;28;45443;-68
2022/05/11 04:14:15;;;;;;;;;12.00;12.00;;;;;19.71;51.78;100858.47;5018221;28;45716;-68
2022/05/11 04:16:40;;;;;;;;;11.67;11.33;;;;;19.85;51.67;100879.06;5018229;28;45227;-68
2022/05/11 04:19:06;;;;;;;;;14.67;13.00;;;;;19.54;52.15;100839.06;5018570;28;45249;-69
2022/05/11 04:21:31;;;;;;;;;10.67;10.67;;;;;19.82;52.19;100890.25;5018250;28;45480;-68
2022/05/11 04:23:57;;;;;;;;;16.00;15.67;;;;;19.80;51.89;100889.59;5017868;28;46512;-68
2022/05/11 04:26:22;;;;;;;;;10.67;8.00;;;;;19.15;52.05;100786.59;5018031;28;45484;-68
2022/05/11 04:28:47;;;;;;;;;12.00;11.67;;;;;19.22;52.18;100796.56;5017946;28;45939;-68
2022/05/11 04:31:13;;;;;;;;;15.33;12.67;;;;;19.71;52.38;100880.88;5018575;28;45456;-68
2022/05/11 04:33:39;;;;;;;;;12.00;12.00;;;;;19.71;52.28;100886.25;5017143;28;48253;-70
2022/05/11 04:36:05;;;;;;;;;14.67;13.00;;;;;19.80;52.55;100899.56;5017253;28;45480;-68
2022/05/11 04:38:31;;;;;;;;;9.67;9.67;;;;;19.53;52.02;100856.25;5017241;28;45421;-68
2022/05/11 04:40:57;;;;;;;;;16.00;12.67;;;;;19.52;52.00;100848.38;5017916;28;45544;-70
2022/05/11 04:43:23;;;;;;;;;12.00;11.00;;;;;19.79;52.04;100896.03;5017067;28;45972;-69
2022/05/11 04:45:48;;;;;;;;;11.67;11.67;;;;;19.79;52.12;100885.25;4998476;28;45549;-68
2022/05/11 04:48:16;;;;;;;;;11.33;11.33;;;;;19.72;52.27;100882.53;5015616;28;45437;-68
2022/05/11 04:50:44;;;;;;;;;14.00;13.67;;;;;19.78;52.30;100888.16;5016601;28;45540;-69
2022/05/11 04:53:11;;;;;;;;;12.33;12.00;;;;;19.75;52.21;100887.53;5016090;28;47278;-69
2022/05/11 04:55:37;;;;;;;;;16.00;15.67;;;;;19.65;52.41;100870.88;5016676;28;45551;-69
2022/05/11 04:58:04;;;;;;;;;13.33;13.33;;;;;19.58;52.26;100864.59;5017338;28;45241;-69
2022/05/11 05:00:30;;;;;;;;;16.33;14.33;;;;;19.66;51.90;100871.72;5017656;28;45255;-68
2022/05/11 05:02:56;;;;;;;;;18.67;16.33;;;;;19.62;52.06;100863.19;5015591;28;47502;-68
2022/05/11 05:05:21;;;;;;;;;15.67;15.67;;;;;19.68;51.98;100886.66;5016825;28;45482;-69
2022/05/11 05:07:46;;;;;;;;;16.67;13.67;;;;;19.67;51.75;100873.38;5017248;28;45448;-71
2022/05/11 05:10:15;;;;;;;;;17.67;15.00;;;;;19.61;52.00;100864.19;5017540;28;45240;-69
2022/05/11 05:12:43;;;;;;;;;16.67;15.33;;;;;19.73;51.83;100889.59;5016458;28;46498;-69
2022/05/11 05:15:11;;;;;;;;;18.33;15.67;;;;;19.71;52.11;100898.91;5016508;28;45544;-69
2022/05/11 05:17:37;;;;;;;;;12.67;11.33;;;;;19.73;51.54;100889.59;4999155;28;45519;-69
2022/05/11 05:20:04;;;;;;;;;16.00;15.00;;;;;19.60;52.06;100865.25;5017094;28;45575;-68
2022/05/11 05:22:30;;;;;;;;;16.67;16.00;;;;;19.23;51.63;100800.94;5016553;28;45921;-69
2022/05/11 05:24:55;;;;;;;;;16.33;15.33;;;;;19.25;51.40;100793.50;5016329;28;45476;-70
2022/05/11 05:27:21;;;;;;;;;16.00;14.67;;;;;19.75;51.54;100890.22;5016673;28;45357;-68
2022/05/11 05:32:40;;;;;;;;;15.00;15.00;;;;;19.81;51.35;100885.03;5016627;28;45520;-68
2022/05/11 05:35:07;;;;;;;;;14.67;14.33;;;;;19.76;51.37;100880.25;5015868;28;45458;-71
2022/05/11 05:37:33;;;;;;;;;16.33;14.00;;;;;19.83;51.33;100881.13;5006830;28;45481;-70
2022/05/11 05:39:59;;;;;;;;;19.67;19.67;;;;;19.78;51.11;100878.19;5001532;28;45571;-68
2022/05/11 05:42:26;;;;;;;;;21.00;20.00;;;;;19.22;51.18;100786.66;4996962;28;46638;-70
2022/05/11 05:44:52;;;;;;;;;17.67;16.33;;;;;19.78;50.88;100877.34;4996965;28;45459;-71
2022/05/11 05:47:18;;;;;;;;;16.00;16.00;;;;;19.87;50.65;100889.66;4996235;28;46297;-69
2022/05/11 05:49:44;;;;;;;;;18.00;17.33;;;;;19.88;50.84;100886.75;4998083;28;45808;-70
2022/05/11 05:52:16;;;;;;;;;17.00;14.33;;;;;19.92;50.59;100906.91;5002998;28;46446;-71
2022/05/11 05:54:41;;;;;;;;;11.67;11.67;;;;;19.82;49.57;100868.66;5015691;28;45436;-70
2022/05/11 05:57:07;;;;;;;;;12.67;12.67;;;;;19.99;49.57;100894.25;4996660;28;45253;-69
2022/05/11 05:59:32;;;;;;;;;14.67;14.67;;;;;20.07;49.33;100901.38;4997295;28;45583;-70
2022/05/11 06:01:57;;;;;;;;;12.67;12.33;;;;;20.16;49.08;100908.22;5008079;28;46740;-70
2022/05/11 06:04:23;;;;;;;;;13.00;11.33;;;;;20.26;49.08;100903.28;5015753;28;45223;-71
2022/05/11 06:06:48;;;;;;;;;12.00;11.00;;;;;19.96;47.94;100807.47;5008002;28;45370;-70
2022/05/11 06:09:14;;;;;;;;;12.33;10.33;;;;;21.30;46.38;100907.38;4997016;28;45541;-70
2022/05/11 06:11:39;;;;;;;;;11.00;11.00;;;;;21.76;44.53;100845.00;4995521;28;45868;-70
2022/05/11 06:14:05;;;;;;;;;10.33;10.33;;;;;22.79;42.68;100864.59;4999764;28;45490;-72
2022/05/11 06:16:31;;;;;;;;;9.00;9.00;;;;;23.75;40.15;100902.09;5007084;28;45452;-71
2022/05/11 06:18:58;;;;;;;;;8.67;8.33;;;;;24.50;39.39;100899.88;4980886;28;45649;-72
2022/05/11 06:21:24;;;;;;;;;12.00;10.67;;;;;25.12;37.34;100892.19;4996231;28;46255;-69
2022/05/11 06:23:51;;;;;;;;;9.00;8.33;;;;;25.77;35.99;100893.94;4996215;28;45497;-69
2022/05/11 06:26:17;;;;;;;;;10.00;9.67;;;;;26.35;35.31;100882.03;4996230;28;45504;-69
2022/05/11 06:28:44;;;;;;;;;10.33;10.33;;;;;26.79;34.15;100846.78;4996388;28;45578;-70
2022/05/11 06:31:10;;;;;;;;;8.67;8.67;;;;;27.62;32.93;100872.28;4978488;28;46829;-70
2022/05/11 06:33:36;;;;;;;;;7.00;7.00;;;;;27.92;31.82;100826.25;4978699;28;45455;-70
2022/05/11 06:36:03;;;;;;;;;6.00;6.00;;;;;28.77;31.05;100877.38;4996516;28;45450;-69
2022/05/11 06:38:32;;;;;;;;;8.00;8.00;;;;;29.06;30.20;100836.03;4996042;28;45630;-70
2022/05/11 06:40:57;;;;;;;;;8.67;8.33;;;;;29.64;29.91;100880.75;5010834;28;46151;-69
2022/05/11 06:43:23;;;;;;;;;8.00;7.00;;;;;30.07;29.17;100878.75;4998695;28;45461;-72
2022/05/11 06:45:49;;;;;;;;;7.00;7.00;;;;;30.33;28.18;100849.44;5003911;28;45377;-69
2022/05/11 06:48:14;;;;;;;;;7.33;7.33;;;;;30.83;27.75;100865.09;5031336;28;45524;-70
2022/05/11 06:50:41;;;;;;;;;9.00;8.00;;;;;31.33;27.44;100871.66;5014432;28;47493;-71
2022/05/11 06:53:12;;;;;;;;;7.33;7.33;;;;;31.75;26.65;100872.06;5016104;28;45348;-70
2022/05/11 07:01:11;;;;;;;;;9.00;8.00;;;;;32.92;24.81;100882.34;5015542;28;45827;-68
2022/05/11 07:03:40;;;;;;;;;8.67;8.33;;;;;33.18;24.26;100876.56;5013675;28;45385;-70
2022/05/11 07:06:06;;;;;;;;;7.00;7.00;;;;;33.24;23.88;100853.38;5012926;28;46139;-69
2022/05/11 07:08:40;;;;;;;;;5.33;5.00;;;;;33.40;23.25;100860.34;5014690;28;45570;-72
2022/05/11 07:13:49;;;;;;;;;6.00;6.00;;;;;33.43;21.94;100831.38;5005134;28;45624;-67
2022/05/11 07:16:18;;;;;;;;;7.33;6.67;;;;;33.82;22.41;100878.03;4998457;28;45322;-67
2022/05/11 07:18:44;;;;;;;;;5.00;5.00;;;;;33.95;20.68;100855.28;4999785;28;45432;-67
2022/05/11 07:21:09;;;;;;;;;5.33;5.33;;;;;34.27;21.06;100879.38;4999350;28;46175;-68
2022/05/11 07:23:35;;;;;;;;;5.00;5.00;;;;;34.69;20.11;100881.22;4981783;28;45826;-68
2022/05/11 07:26:01;;;;;;;;;4.67;4.67;;;;;34.92;19.92;100857.38;5016138;28;45615;-67
2022/05/11 07:28:27;;;;;;;;;5.00;5.00;;;;;35.36;20.05;100847.69;5019457;28;45562;-68
2022/05/11 07:30:53;;;;;;;;;5.00;5.00;;;;;35.92;20.20;100865.91;5018805;28;47795;-68
2022/05/11 07:33:19;;;;;;;;;6.00;6.00;;;;;36.40;19.49;100874.47;5006279;28;45408;-69
2022/05/11 07:35:45;;;;;;;;;7.33;6.33;;;;;36.80;19.20;100882.94;5015827;28;45435;-68
2022/05/11 07:38:13;;;;;;;;;8.33;6.33;;;;;37.14;19.35;100874.81;5009784;28;45321;-68
2022/05/11 07:40:40;;;;;;;;;7.00;7.00;;;;;37.26;18.45;100854.03;4998779;28;47020;-67
2022/05/11 07:43:16;;;;;;;;;9.33;7.67;;;;;37.22;18.30;100839.13;4997137;28;45515;-68
2022/05/11 07:45:42;;;;;;;;;6.67;6.67;;;;;37.24;18.53;100836.84;4999228;28;45435;-68
2022/05/11 07:48:08;;;;;;;;;4.67;4.67;;;;;37.36;18.92;100871.19;4999202;28;45577;-67
2022/05/11 07:50:54;;;;;;;;;4.00;4.00;;;;;37.10;18.53;100873.00;5002491;28;45512;-71
2022/05/11 07:53:19;;;;;;;;;5.33;5.33;;;;;36.78;18.49;100844.44;5016316;28;45523;-70
2022/05/11 07:55:45;;;;;;;;;4.67;3.67;;;;;36.83;18.55;100880.34;5018269;28;45256;-70
2022/05/11 08:00:58;;;;;;;;;3.67;3.67;;;;;36.23;18.88;100866.00;5010748;28;46340;-71
2022/05/11 08:03:24;;;;;;;;;4.67;4.33;;;;;36.37;19.32;100886.19;5005638;28;45397;-70
2022/05/11 08:05:49;;;;;;;;;6.00;6.00;;;;;36.22;19.19;100867.97;5017329;28;45413;-72
2022/05/11 08:08:15;;;;;;;;;5.67;4.33;;;;;36.25;19.25;100866.53;5018349;28;45480;-73
2022/05/11 08:10:43;;;;;;;;;6.00;5.67;;;;;36.25;19.07;100869.31;5018314;28;46691;-74
2022/05/11 08:13:12;;;;;;;;;5.00;4.33;;;;;36.33;19.30;100876.88;5018357;28;45480;-74
2022/05/11 08:15:43;;;;;;;;;5.00;4.00;;;;;36.34;18.88;100884.06;4998652;28;45594;-73
2022/05/11 08:18:09;;;;;;;;;4.00;4.00;;;;;36.12;18.12;100856.31;5013730;28;45536;-73
2022/05/11 08:20:38;;;;;;;;;4.33;4.33;;;;;36.26;18.71;100871.75;4998317;28;46429;-73
2022/05/11 08:23:07;;;;;;;;;4.00;4.00;;;;;36.26;18.38;100862.63;4980599;28;45775;-71
2022/05/11 08:25:38;;;;;;;;;6.00;5.00;;;;;36.32;18.40;100846.75;4998474;28;45351;-71
2022/05/11 08:28:09;;;;;;;;;2.33;2.33;;;;;36.64;18.45;100881.66;4997189;28;45453;-72
2022/05/11 08:33:19;;;;;;;;;2.00;2.00;;;;;36.93;17.41;100872.91;5002502;28;45516;-73
2022/05/11 08:35:49;;;;;;;;;4.00;3.67;;;;;36.64;16.61;100857.53;5018959;28;45369;-74
2022/05/11 08:38:15;;;;;;;;;6.33;5.33;;;;;36.63;17.30;100860.63;5018737;28;45686;-72
2022/05/11 08:41:04;;;;;;;;;4.33;3.00;;;;;36.64;16.69;100868.63;4998449;28;46369;-73
2022/05/11 08:43:31;;;;;;;;;6.67;3.67;;;;;36.70;16.69;100872.09;4997956;28;45632;-72
2022/05/11 08:46:02;;;;;;;;;3.00;3.00;;;;;36.82;16.94;100880.66;4998186;28;45291;-73
2022/05/11 08:49:12;;;;;;;;;5.00;5.00;;;;;37.04;16.88;100864.00;4998124;28;45433;-73
2022/05/11 08:51:45;;;;;;;;;3.67;3.67;;;;;37.04;16.60;100861.22;4939927;28;47783;-74
2022/05/11 08:54:20;;;;;;;;;3.67;3.00;;;;;36.97;16.04;100855.34;4956280;28;45522;-74
2022/05/11 08:56:57;;;;;;;;;3.67;3.67;;;;;37.19;15.71;100867.50;4982674;28;45460;-74
2022/05/11 08:59:28;;;;;;;;;2.00;2.00;;;;;36.94;15.82;100864.28;4998110;28;45278;-75
2022/05/11 09:02:19;;;;;;;;;3.00;3.00;;;;;37.21;15.80;100871.56;4990979;28;47084;-73
2022/05/11 09:04:52;;;;;;;;;3.33;3.00;;;;;37.52;15.82;100854.94;5017481;28;45349;-71
2022/05/11 09:07:18;;;;;;;;;5.33;4.33;;;;;37.95;15.66;100868.09;5014283;28;45421;-74
2022/05/11 09:09:44;;;;;;;;;5.00;4.00;;;;;38.08;15.56;100866.31;5017863;28;45349;-73
2022/05/11 09:12:11;;;;;;;;;3.00;3.00;;;;;38.29;14.99;100868.16;5017141;28;46636;-74
2022/05/11 09:14:45;;;;;;;;;2.67;2.67;;;;;38.23;14.84;100858.31;5008533;28;45666;-74
2022/05/11 09:17:40;;;;;;;;;4.00;4.00;;;;;38.74;15.09;100869.75;5001427;28;45615;-72
2022/05/11 09:20:14;;;;;;;;;4.00;4.00;;;;;39.06;14.28;100873.91;5002198;28;45675;-74
2022/05/11 09:23:00;;;;;;;;;3.00;3.00;;;;;39.17;13.58;100875.19;5002293;28;45552;-73
2022/05/11 09:25:30;;;;;;;;;2.67;1.33;;;;;39.60;13.06;100868.63;5017283;28;45474;-74
2022/05/11 09:28:19;;;;;;;;;10.33;9.33;;;;;40.02;12.73;100873.09;5016196;28;45250;-74
2022/05/11 09:31:03;;;;;;;;;2.33;2.33;;;;;40.25;12.29;100870.81;5017388;28;45393;-73
2022/05/11 09:33:32;;;;;;;;;2.00;2.00;;;;;40.41;12.10;100862.66;5017065;28;45648;-75
2022/05/11 09:36:01;;;;;;;;;4.33;2.00;;;;;40.03;12.83;100805.13;5017182;28;45502;-73
2022/05/11 09:38:33;;;;;;;;;1.67;1.67;;;;;41.08;12.25;100875.41;5016645;28;45302;-72
2022/05/11 09:41:09;;;;;;;;;2.00;2.00;;;;;41.40;10.59;100856.16;5015555;28;45655;-75
2022/05/11 09:43:42;;;;;;;;;2.00;2.00;;;;;41.10;10.83;100842.41;5017201;28;46577;-74
2022/05/11 09:46:31;;;;;;;;;2.00;2.00;;;;;41.19;11.29;100859.03;5017201;28;45496;-73
2022/05/11 09:49:15;;;;;;;;;2.00;2.00;;;;;40.52;11.97;100863.06;5015335;28;45219;-75
2022/05/11 09:51:44;;;;;;;;;3.00;3.00;;;;;40.09;12.46;100856.69;4999695;28;45548;-72
2022/05/11 09:54:36;;;;;;;;;2.00;2.00;;;;;39.76;12.88;100859.34;4996907;28;46181;-74
2022/05/11 09:57:27;;;;;;;;;3.00;3.00;;;;;39.48;12.73;100842.31;4990887;28;45420;-73
2022/05/11 10:00:13;;;;;;;;;2.33;2.33;;;;;38.92;13.24;100852.69;4999718;28;45464;-72
2022/05/11 10:02:44;;;;;;;;;2.67;2.67;;;;;37.92;13.74;100849.31;4997226;28;45243;-74
2022/05/11 10:05:20;;;;;;;;;5.00;3.67;;;;;37.01;14.46;100838.88;5013215;28;46187;-72
2022/05/11 10:07:52;;;;;;;;;3.00;3.00;;;;;36.06;15.89;100824.38;5015103;28;45592;-73
2022/05/11 10:10:27;;;;;;;;;2.00;2.00;;;;;35.33;16.08;100851.88;5017023;28;45208;-75
2022/05/11 10:13:02;;;;;;;;;3.00;3.00;;;;;34.67;19.06;100855.03;4999160;28;45204;-72
2022/05/11 10:24:31;;;;;;;;;2.00;2.00;;;;;30.87;20.87;100857.97;5016015;28;45580;-75
2022/05/11 10:27:13;;;;;;;;;2.00;2.00;;;;;30.54;21.45;100831.88;5015970;28;45665;-78
2022/05/11 10:29:54;;;;;;;;;2.67;2.67;;;;;30.10;21.85;100856.25;4997439;28;45346;-73
2022/05/11 10:32:40;;;;;;;;;3.33;2.00;;;;;29.59;23.41;100858.78;4979476;28;45458;-72
2022/05/11 10:35:14;;;;;;;;;3.33;2.00;;;;;29.03;24.53;100855.69;4996724;28;45462;-71
2022/05/11 10:38:09;;;;;;;;;2.00;2.00;;;;;28.72;24.55;100860.94;4996721;28;45838;-73
2022/05/11 10:40:44;;;;;;;;;3.00;3.00;;;;;28.36;25.54;100867.16;4976860;28;45558;-73
2022/05/11 10:43:33;;;;;;;;;3.33;3.00;;;;;27.90;26.10;100858.47;5016053;28;45330;-71
2022/05/11 10:46:08;;;;;;;;;2.00;2.00;;;;;27.53;26.43;100850.88;4998636;28;45417;-72
2022/05/11 10:48:55;;;;;;;;;1.00;1.00;;;;;27.55;26.97;100858.81;4997945;28;47311;-70
2022/05/11 10:51:43;;;;;;;;;2.00;2.00;;;;;27.36;27.65;100858.28;5018649;28;45298;-70
2022/05/11 10:54:17;;;;;;;;;2.00;2.00;;;;;26.94;28.67;100836.09;4997813;28;45410;-69
2022/05/11 10:57:04;;;;;;;;;0.00;0.00;;;;;26.90;29.02;100860.31;5012265;28;45260;-69
2022/05/11 10:59:47;;;;;;;;;2.33;1.00;;;;;26.78;28.97;100858.75;5018553;28;46556;-69
2022/05/11 11:02:13;;;;;;;;;4.67;3.33;;;;;26.67;28.78;100849.59;5018548;28;45380;-70
2022/05/11 11:05:02;;;;;;;;;4.00;4.00;;;;;26.59;29.58;100853.53;5018259;28;45607;-71
2022/05/11 11:07:37;;;;;;;;;3.00;1.33;;;;;26.63;29.70;100845.69;5003865;28;45513;-69
2022/05/11 11:10:03;;;;;;;;;2.00;2.00;;;;;26.62;29.99;100846.75;5019512;28;45406;-69
2022/05/11 11:12:40;;;;;;;;;2.00;2.00;;;;;26.50;30.11;100846.84;5015177;28;45424;-68
2022/05/11 11:15:12;;;;;;;;;3.00;2.00;;;;;26.34;29.92;100836.72;5016717;28;45870;-69
2022/05/11 11:17:40;;;;;;;;;4.00;4.00;;;;;26.25;29.70;100836.31;5005640;28;45385;-69
2022/05/11 11:20:08;;;;;;;;;2.00;2.00;;;;;26.17;29.98;100817.63;5016412;28;45558;-71
2022/05/11 11:23:12;;;;;;;;;2.00;2.00;;;;;26.21;30.10;100831.56;5018125;28;45403;-69
2022/05/11 11:26:03;;;;;;;;;2.00;2.00;;;;;26.13;30.13;100837.44;5001676;28;45347;-69
2022/05/11 11:28:52;;;;;;;;;1.00;1.00;;;;;26.06;30.26;100818.50;5019343;28;45231;-69
2022/05/11 11:31:20;;;;;;;;;2.00;2.00;;;;;26.16;30.46;100837.75;5019084;28;46201;-69
2022/05/11 11:34:04;;;;;;;;;3.33;1.33;;;;;26.07;30.34;100839.25;5001594;28;45472;-69
2022/05/11 11:36:40;;;;;;;;;1.00;1.00;;;;;26.08;30.06;100830.00;5001796;28;45282;-68
2022/05/11 11:39:14;;;;;;;;;2.00;2.00;;;;;26.02;30.42;100814.59;5001587;28;45465;-68
2022/05/11 11:41:42;;;;;;;;;2.00;2.00;;;;;26.08;30.74;100821.81;5001650;28;48494;-68
2022/05/11 11:44:30;;;;;;;;;2.67;2.67;;;;;26.10;30.78;100818.84;5019118;28;45332;-69
2022/05/11 11:46:57;;;;;;;;;3.00;2.33;;;;;26.12;30.63;100831.16;5019684;28;45259;-68
2022/05/11 11:49:26;;;;;;;;;3.33;2.33;;;;;25.91;31.21;100771.91;5019408;28;45215;-67
2022/05/11 11:51:53;;;;;;;;;4.67;2.00;;;;;26.16;31.10;100801.50;5019219;28;45778;-69
2022/05/11 11:54:37;;;;;;;;;2.00;2.00;;;;;26.17;31.56;100795.81;5000944;28;45444;-69
2022/05/11 11:57:22;;;;;;;;;4.00;3.00;;;;;26.12;31.84;100798.44;5016944;28;45572;-68
2022/05/11 11:59:50;;;;;;;;;2.00;2.00;;;;;26.09;31.31;100798.94;5016982;28;45401;-67
2022/05/11 12:02:22;;;;;;;;;4.00;3.00;;;;;26.00;31.58;100805.84;5018293;28;46456;-68
2022/05/11 12:04:57;;;;;;;;;4.00;3.00;;;;;25.84;31.64;100810.22;5000201;28;45509;-69